createdAt,value
2017-10-17T00:00:31.864Z,23.60
2017-10-17T00:02:57.800Z,31.53
2017-10-17T00:05:31.073Z,24.43
2017-10-17T00:07:57.786Z,25.20
2017-10-17T00:10:24.521Z,25.43
2017-10-17T00:12:51.229Z,28.50
2017-10-17T00:15:17.905Z,29.03
2017-10-17T00:17:43.901Z,24.73
2017-10-17T00:20:09.923Z,25.33
2017-10-17T00:22:35.857Z,29.13
2017-10-17T00:25:01.829Z,26.77
2017-10-17T00:27:27.765Z,26.77
2017-10-17T00:29:53.740Z,24.90
2017-10-17T00:32:19.674Z,25.93
2017-10-17T00:34:45.626Z,26.40
2017-10-17T00:37:12.385Z,24.47
2017-10-17T00:39:38.381Z,23.37
2017-10-17T00:42:04.317Z,27.83
2017-10-17T00:44:30.289Z,31.03
2017-10-17T00:46:56.224Z,27.17
2017-10-17T00:49:22.204Z,25.50
2017-10-17T00:51:48.209Z,25.73
2017-10-17T00:54:14.892Z,24.37
2017-10-17T00:56:40.907Z,30.30
2017-10-17T00:59:06.886Z,28.03
2017-10-17T01:01:32.853Z,29.70
2017-10-17T01:03:59.531Z,27.53
2017-10-17T01:06:25.485Z,30.97
2017-10-17T01:08:52.153Z,22.80
2017-10-17T01:11:18.117Z,26.13
2017-10-17T01:13:44.817Z,27.00
2017-10-17T01:16:10.808Z,26.20
2017-10-17T01:18:36.779Z,33.93
2017-10-17T01:21:05.674Z,26.57
2017-10-17T01:23:33.408Z,29.93
2017-10-17T01:26:02.202Z,27.13
2017-10-17T01:28:28.165Z,26.70
2017-10-17T01:30:54.841Z,27.17
2017-10-17T01:33:20.808Z,27.80
2017-10-17T01:35:46.749Z,29.80
2017-10-17T01:38:17.729Z,31.20
2017-10-17T01:40:44.453Z,26.00
2017-10-17T01:43:11.949Z,27.27
2017-10-17T01:45:37.915Z,28.20
2017-10-17T01:48:07.517Z,29.23
2017-10-17T01:50:34.229Z,29.30
2017-10-17T01:53:05.867Z,27.30
2017-10-17T01:55:32.631Z,31.30
2017-10-17T01:57:59.526Z,27.17
2017-10-17T02:00:26.214Z,30.40
2017-10-17T02:02:52.185Z,29.63
2017-10-17T02:05:18.146Z,34.60
2017-10-17T02:07:54.922Z,27.80
2017-10-17T02:10:22.625Z,27.30
2017-10-17T02:12:48.582Z,29.40
2017-10-17T02:15:15.318Z,29.23
2017-10-17T02:17:47.006Z,29.83
2017-10-17T02:20:13.014Z,30.13
2017-10-17T02:22:38.987Z,27.67
2017-10-17T02:25:11.915Z,28.97
2017-10-17T02:27:37.866Z,26.47
2017-10-17T02:30:09.843Z,30.73
2017-10-17T02:32:35.786Z,25.87
2017-10-17T02:35:01.763Z,31.47
2017-10-17T02:37:27.709Z,32.43
2017-10-17T02:39:53.691Z,33.80
2017-10-17T02:42:19.639Z,26.63
2017-10-17T02:44:46.395Z,29.17
2017-10-17T02:47:12.358Z,32.83
2017-10-17T02:49:41.296Z,29.17
2017-10-17T02:52:23.158Z,26.13
2017-10-17T02:54:49.099Z,27.57
2017-10-17T02:57:15.102Z,28.00
2017-10-17T02:59:41.874Z,25.80
2017-10-17T03:02:09.423Z,28.50
2017-10-17T03:04:36.111Z,30.33
2017-10-17T03:07:02.049Z,33.00
2017-10-17T03:09:28.761Z,30.37
2017-10-17T03:11:54.710Z,27.93
2017-10-17T03:14:26.669Z,35.43
2017-10-17T03:16:52.634Z,27.07
2017-10-17T03:19:19.330Z,26.43
2017-10-17T03:21:50.322Z,28.13
2017-10-17T03:24:23.414Z,30.40
2017-10-17T03:26:49.411Z,32.20
2017-10-17T03:29:15.374Z,30.77
2017-10-17T03:31:42.066Z,30.37
2017-10-17T03:34:18.970Z,29.17
2017-10-17T03:36:45.662Z,36.83
2017-10-17T03:39:11.634Z,29.27
2017-10-17T03:41:37.614Z,27.73
2017-10-17T03:44:10.394Z,30.63
2017-10-17T03:46:45.823Z,33.53
2017-10-17T03:49:11.846Z,32.47
2017-10-17T03:51:37.798Z,31.90
2017-10-17T03:54:04.497Z,30.13
2017-10-17T03:56:30.479Z,27.63
2017-10-17T03:59:08.350Z,34.00
2017-10-17T04:01:34.302Z,36.50
2017-10-17T04:07:06.074Z,32.03
2017-10-17T04:09:36.990Z,27.57
2017-10-17T04:12:03.013Z,29.30
2017-10-17T04:17:34.325Z,29.87
2017-10-17T04:20:20.358Z,31.00
2017-10-17T04:22:59.226Z,29.23
2017-10-17T04:25:29.122Z,39.87
2017-10-17T04:28:03.953Z,42.80
2017-10-17T04:30:37.794Z,45.33
2017-10-17T04:33:19.605Z,34.63
2017-10-17T04:35:45.562Z,39.00
2017-10-17T04:38:11.518Z,37.57
2017-10-17T04:40:37.526Z,32.20
2017-10-17T04:43:15.769Z,30.50
2017-10-17T04:45:55.542Z,32.70
2017-10-17T04:51:28.244Z,29.87
2017-10-17T04:53:54.986Z,31.90
2017-10-17T04:56:22.485Z,32.30
2017-10-17T05:01:59.234Z,33.43
2017-10-17T05:04:30.263Z,32.83
2017-10-17T05:07:13.002Z,34.27
2017-10-17T05:09:40.681Z,35.40
2017-10-17T05:12:07.554Z,33.17
2017-10-17T05:14:46.798Z,36.50
2017-10-17T05:17:34.389Z,34.53
2017-10-17T05:20:02.177Z,29.80
2017-10-17T05:22:28.133Z,32.37
2017-10-17T05:24:57.147Z,35.87
2017-10-17T05:27:31.708Z,35.90
2017-10-17T05:33:11.222Z,38.33
2017-10-17T05:35:37.238Z,34.73
2017-10-17T05:38:03.226Z,35.07
2017-10-17T05:40:29.186Z,31.57
2017-10-17T05:42:55.166Z,28.93
2017-10-17T05:45:21.107Z,33.27
2017-10-17T05:47:49.889Z,36.63
2017-10-17T05:50:41.346Z,35.17
2017-10-17T05:53:07.348Z,28.83
2017-10-17T05:55:33.323Z,32.93
2017-10-17T05:58:00.061Z,31.30
2017-10-17T06:00:26.045Z,30.90
2017-10-17T06:02:51.994Z,33.03
2017-10-17T06:05:17.981Z,31.90
2017-10-17T06:07:43.970Z,32.17
2017-10-17T06:10:10.693Z,33.50
2017-10-17T06:12:37.387Z,33.57
2017-10-17T06:15:03.402Z,32.50
2017-10-17T06:17:29.385Z,31.30
2017-10-17T06:19:55.362Z,34.27
2017-10-17T06:22:22.052Z,32.10
2017-10-17T06:24:48.054Z,32.20
2017-10-17T06:27:14.007Z,37.17
2017-10-17T06:29:39.998Z,33.87
2017-10-17T06:32:06.710Z,34.47
2017-10-17T06:34:32.744Z,39.93
2017-10-17T06:36:59.477Z,33.00
2017-10-17T06:39:25.464Z,38.30
2017-10-17T06:41:51.450Z,31.23
2017-10-17T06:44:17.414Z,33.40
2017-10-17T06:46:43.382Z,36.57
2017-10-17T06:49:09.398Z,36.50
2017-10-17T06:51:35.342Z,35.37
2017-10-17T06:54:01.309Z,35.30
2017-10-17T06:56:27.323Z,40.10
2017-10-17T06:58:54.075Z,38.57
2017-10-17T07:01:20.027Z,36.80
2017-10-17T07:03:46.762Z,39.87
2017-10-17T07:06:13.454Z,34.57
2017-10-17T07:08:39.451Z,39.40
2017-10-17T07:11:05.435Z,46.63
2017-10-17T07:13:31.410Z,40.03
2017-10-17T07:15:58.147Z,39.63
2017-10-17T07:18:24.103Z,40.17
2017-10-17T07:20:50.084Z,39.73
2017-10-17T07:23:16.030Z,39.73
2017-10-17T07:25:42.017Z,40.80
2017-10-17T07:28:07.965Z,34.53
2017-10-17T07:30:34.678Z,36.80
2017-10-17T07:33:00.662Z,44.23
2017-10-17T07:35:26.615Z,35.30
2017-10-17T07:37:53.341Z,41.50
2017-10-17T07:40:20.022Z,41.80
2017-10-17T07:42:46.005Z,37.63
2017-10-17T07:45:11.971Z,41.30
2017-10-17T07:47:37.914Z,36.23
2017-10-17T07:50:03.894Z,36.73
2017-10-17T07:52:30.591Z,38.17
2017-10-17T07:54:56.586Z,40.57
2017-10-17T07:57:22.539Z,41.50
2017-10-17T07:59:49.297Z,40.33
2017-10-17T08:02:15.245Z,37.80
2017-10-17T08:04:41.240Z,36.90
2017-10-17T08:07:07.232Z,40.10
2017-10-17T08:09:33.186Z,35.00
2017-10-17T08:11:59.173Z,32.60
2017-10-17T08:14:25.130Z,42.23
2017-10-17T08:16:51.082Z,33.80
2017-10-17T08:19:17.086Z,34.93
2017-10-17T08:21:43.044Z,33.47
2017-10-17T08:24:09.765Z,31.67
2017-10-17T08:26:36.490Z,34.13
2017-10-17T08:29:03.220Z,30.80
2017-10-17T08:31:29.932Z,35.00
2017-10-17T08:33:55.963Z,29.30
2017-10-17T08:36:22.661Z,33.50
2017-10-17T08:38:48.609Z,32.07
2017-10-17T08:41:14.601Z,35.87
2017-10-17T08:43:41.290Z,29.30
2017-10-17T08:46:07.243Z,32.43
2017-10-17T08:48:33.249Z,30.33
2017-10-17T08:51:00.034Z,30.07
2017-10-17T08:53:26.002Z,32.63
2017-10-17T08:55:52.005Z,30.87
2017-10-17T08:58:18.021Z,28.60
2017-10-17T09:00:43.965Z,30.17
2017-10-17T09:03:10.713Z,29.10
2017-10-17T09:05:36.672Z,31.53
2017-10-17T09:08:02.686Z,26.43
2017-10-17T09:10:28.649Z,26.63
2017-10-17T09:12:54.670Z,26.23
2017-10-17T09:15:20.621Z,25.10
2017-10-17T09:17:46.582Z,25.50
2017-10-17T09:20:12.590Z,24.87
2017-10-17T09:22:38.543Z,24.63
2017-10-17T09:25:04.503Z,29.53
2017-10-17T09:27:30.562Z,24.43
2017-10-17T09:29:56.519Z,22.90
2017-10-17T09:32:22.473Z,23.73
2017-10-17T09:34:48.465Z,22.60
2017-10-17T09:37:14.418Z,22.70
2017-10-17T09:39:41.108Z,23.63
2017-10-17T09:42:07.091Z,22.70
2017-10-17T09:44:33.081Z,21.23
2017-10-17T09:46:59.035Z,22.70
2017-10-17T09:49:24.980Z,21.17
2017-10-17T09:51:51.735Z,21.27
2017-10-17T09:54:17.731Z,21.53
2017-10-17T09:56:43.682Z,19.47
2017-10-17T09:59:09.669Z,22.30
2017-10-17T10:01:35.633Z,22.00
2017-10-17T10:04:01.653Z,22.53
2017-10-17T10:06:27.643Z,21.70
2017-10-17T10:08:53.589Z,19.93
2017-10-17T10:11:20.320Z,21.97
2017-10-17T10:13:46.275Z,20.67
2017-10-17T10:16:19.314Z,18.80
2017-10-17T10:18:45.280Z,21.13
2017-10-17T10:21:11.266Z,20.50
2017-10-17T10:23:37.223Z,19.33
2017-10-17T10:26:03.182Z,19.83
2017-10-17T10:28:29.170Z,17.73
2017-10-17T10:30:55.189Z,22.30
2017-10-17T10:33:21.150Z,18.90
2017-10-17T10:35:47.854Z,19.30
2017-10-17T10:38:13.854Z,18.20
2017-10-17T10:40:39.805Z,20.63
2017-10-17T10:43:05.805Z,16.43
2017-10-17T10:45:32.554Z,16.97
2017-10-17T10:47:58.498Z,19.80
2017-10-17T10:50:24.458Z,19.50
2017-10-17T10:52:50.454Z,17.30
2017-10-17T10:55:17.154Z,19.80
2017-10-17T10:57:43.891Z,24.27
2017-10-17T11:00:10.625Z,22.47
2017-10-17T11:02:37.358Z,16.60
2017-10-17T11:05:03.353Z,19.53
2017-10-17T11:07:29.354Z,18.30
2017-10-17T11:09:55.347Z,16.33
2017-10-17T11:12:22.038Z,15.53
2017-10-17T11:14:48.050Z,18.17
2017-10-17T11:17:14.002Z,16.40
2017-10-17T11:19:40.010Z,16.07
2017-10-17T11:22:05.982Z,15.00
2017-10-17T11:24:31.967Z,15.67
2017-10-17T11:26:57.978Z,14.37
2017-10-17T11:29:23.938Z,14.20
2017-10-17T11:31:50.677Z,14.23
2017-10-17T11:34:16.680Z,14.17
2017-10-17T11:36:42.673Z,14.53
2017-10-17T11:39:09.459Z,14.73
2017-10-17T11:41:47.910Z,14.07
2017-10-17T11:44:14.656Z,14.67
2017-10-17T11:46:40.620Z,14.60
2017-10-17T11:49:06.578Z,14.87
2017-10-17T11:51:32.578Z,16.90
2017-10-17T11:53:58.591Z,15.13
2017-10-17T11:56:24.546Z,15.50
2017-10-17T11:58:50.526Z,13.47
2017-10-17T12:01:16.528Z,21.87
2017-10-17T12:03:42.486Z,14.37
2017-10-17T12:06:08.499Z,16.73
2017-10-17T12:08:35.276Z,19.50
2017-10-17T12:11:01.287Z,12.90
2017-10-17T12:13:27.286Z,14.83
2017-10-17T12:15:53.262Z,14.57
2017-10-17T12:18:19.955Z,13.47
2017-10-17T12:20:45.963Z,15.40
2017-10-17T12:23:11.948Z,13.27
2017-10-17T12:25:37.900Z,13.47
2017-10-17T12:28:04.643Z,14.93
2017-10-17T12:30:31.390Z,14.67
2017-10-17T12:32:57.402Z,15.50
2017-10-17T12:35:23.358Z,15.63
2017-10-17T12:37:49.349Z,16.40
2017-10-17T12:40:15.313Z,14.90
2017-10-17T12:42:41.306Z,14.87
2017-10-17T12:45:08.047Z,15.67
2017-10-17T12:47:34.059Z,16.23
2017-10-17T12:50:00.026Z,15.60
2017-10-17T12:52:26.031Z,15.80
2017-10-17T12:54:52.054Z,14.90
2017-10-17T12:57:18.005Z,16.83
2017-10-17T12:59:44.001Z,15.97
2017-10-17T13:02:09.958Z,16.70
2017-10-17T13:04:35.926Z,14.43
2017-10-17T13:07:01.986Z,14.20
2017-10-17T13:09:27.976Z,15.13
2017-10-17T13:11:53.938Z,14.77
2017-10-17T13:14:20.637Z,15.83
2017-10-17T13:16:47.372Z,15.60
2017-10-17T13:19:14.118Z,15.70
2017-10-17T13:21:40.114Z,16.53
2017-10-17T13:24:06.159Z,17.10
2017-10-17T13:26:32.154Z,17.07
2017-10-17T13:28:58.098Z,17.63
2017-10-17T13:31:24.115Z,17.17
2017-10-17T13:33:50.102Z,16.33
2017-10-17T13:36:16.077Z,18.83
2017-10-17T13:38:42.083Z,16.83
2017-10-17T13:41:08.066Z,16.03
2017-10-17T13:43:34.806Z,17.33
2017-10-17T13:46:01.504Z,17.70
2017-10-17T13:48:27.449Z,17.40
2017-10-17T13:50:53.454Z,17.30
2017-10-17T13:53:19.431Z,18.10
2017-10-17T13:55:45.426Z,18.00
2017-10-17T13:58:11.381Z,18.40
2017-10-17T14:00:37.336Z,17.43
2017-10-17T14:03:03.367Z,19.33
2017-10-17T14:05:29.323Z,18.97
2017-10-17T14:07:55.290Z,19.37
2017-10-17T14:10:21.290Z,18.87
2017-10-17T14:12:47.301Z,18.87
2017-10-17T14:15:13.287Z,20.03
2017-10-17T14:17:39.263Z,18.80
2017-10-17T14:20:05.246Z,21.97
2017-10-17T14:22:31.197Z,18.80
2017-10-17T14:24:57.199Z,19.90
2017-10-17T14:27:23.217Z,18.97
2017-10-17T14:29:49.238Z,20.90
2017-10-17T14:32:15.195Z,18.87
2017-10-17T14:34:41.142Z,18.87
2017-10-17T14:37:07.132Z,18.17
2017-10-17T14:39:33.092Z,17.80
2017-10-17T14:41:59.850Z,19.00
2017-10-17T14:44:25.822Z,16.20
2017-10-17T14:46:52.530Z,19.80
2017-10-17T14:49:18.574Z,19.53
2017-10-17T14:51:44.589Z,17.60
2017-10-17T14:54:10.549Z,19.57
2017-10-17T14:56:36.502Z,17.67
2017-10-17T14:59:02.498Z,18.43
2017-10-17T15:01:29.234Z,21.60
2017-10-17T15:03:55.233Z,20.57
2017-10-17T15:06:21.963Z,18.40
2017-10-17T15:08:48.729Z,18.10
2017-10-17T15:11:14.714Z,17.80
2017-10-17T15:13:40.721Z,17.53
2017-10-17T15:16:06.678Z,18.20
2017-10-17T15:18:32.647Z,20.23
2017-10-17T15:20:58.646Z,18.30
2017-10-17T15:23:24.611Z,17.10
2017-10-17T15:25:50.588Z,19.03
2017-10-17T15:28:16.569Z,17.43
2017-10-17T15:30:42.553Z,18.80
2017-10-17T15:33:09.257Z,15.97
2017-10-17T15:35:35.238Z,25.90
2017-10-17T15:38:01.258Z,20.43
2017-10-17T15:40:27.221Z,17.23
2017-10-17T15:42:53.181Z,17.90
2017-10-17T15:45:19.250Z,16.20
2017-10-17T15:47:45.210Z,17.90
2017-10-17T15:50:11.157Z,17.57
2017-10-17T15:52:37.140Z,17.87
2017-10-17T15:55:03.127Z,17.50
2017-10-17T15:57:29.117Z,18.30
2017-10-17T15:59:55.102Z,18.50
2017-10-17T16:02:21.100Z,18.60
2017-10-17T16:04:47.095Z,18.37
2017-10-17T16:07:13.785Z,19.73
2017-10-17T16:09:39.738Z,17.47
2017-10-17T16:12:05.717Z,18.50
2017-10-17T16:14:31.686Z,18.60
2017-10-17T16:17:04.682Z,18.20
2017-10-17T16:19:30.638Z,17.50
2017-10-17T16:21:56.591Z,18.27
2017-10-17T16:24:22.601Z,20.27
2017-10-17T16:26:48.693Z,20.13
2017-10-17T16:29:14.690Z,18.67
2017-10-17T16:31:40.671Z,20.80
2017-10-17T16:34:07.362Z,24.20
2017-10-17T16:36:33.354Z,20.57
2017-10-17T16:38:59.419Z,19.10
2017-10-17T16:41:26.109Z,22.30
2017-10-17T16:43:52.152Z,19.43
2017-10-17T16:46:18.162Z,19.80
2017-10-17T16:48:44.885Z,19.33
2017-10-17T16:51:11.582Z,18.17
2017-10-17T16:53:37.576Z,21.50
2017-10-17T16:56:03.578Z,20.93
2017-10-17T16:58:29.525Z,20.23
2017-10-17T17:00:55.594Z,23.07
2017-10-17T17:03:21.599Z,25.03
2017-10-17T17:05:47.567Z,20.00
2017-10-17T17:08:14.410Z,23.30
2017-10-17T17:10:40.398Z,21.47
2017-10-17T17:13:07.138Z,20.87
2017-10-17T17:15:33.984Z,22.07
2017-10-17T17:17:59.929Z,20.90
2017-10-17T17:20:25.934Z,22.30
2017-10-17T17:23:01.616Z,25.40
2017-10-17T17:25:27.655Z,25.13
2017-10-17T17:27:53.923Z,22.30
2017-10-17T17:30:19.953Z,23.20
2017-10-17T17:32:45.961Z,23.60
2017-10-17T17:35:12.673Z,23.17
2017-10-17T17:37:39.369Z,22.60
2017-10-17T17:40:05.497Z,20.00
2017-10-17T17:42:31.477Z,21.40
2017-10-17T17:44:57.454Z,23.60
2017-10-17T17:47:23.474Z,27.60
2017-10-17T17:49:49.486Z,28.00
2017-10-17T17:52:15.632Z,27.30
2017-10-17T17:54:41.614Z,28.10
2017-10-17T17:57:07.594Z,30.40
2017-10-17T17:59:33.573Z,35.13
2017-10-17T18:01:59.562Z,29.80
2017-10-17T18:04:25.791Z,29.83
2017-10-17T18:06:52.567Z,32.33
2017-10-17T18:09:18.710Z,33.27
2017-10-17T18:11:44.896Z,39.33
2017-10-17T18:14:10.911Z,31.17
2017-10-17T18:16:36.874Z,32.73
2017-10-17T18:19:02.857Z,32.63
2017-10-17T18:21:28.878Z,57.00
2017-10-17T18:23:55.134Z,44.83
2017-10-17T18:26:21.156Z,42.57
2017-10-17T18:28:47.146Z,38.53
2017-10-17T18:31:13.861Z,43.03
2017-10-17T18:33:39.870Z,32.47
2017-10-17T18:36:06.637Z,37.33
2017-10-17T18:38:32.650Z,33.83
2017-10-17T18:40:58.626Z,32.17
2017-10-17T18:43:24.590Z,28.67
2017-10-17T18:45:52.086Z,30.47
2017-10-17T18:48:18.133Z,31.30
2017-10-17T18:50:44.122Z,29.07
2017-10-17T18:53:10.104Z,27.53
2017-10-17T18:55:36.102Z,27.20
2017-10-17T18:58:02.878Z,30.57
2017-10-17T19:00:28.827Z,29.20
2017-10-17T19:02:55.595Z,31.30
2017-10-17T19:05:21.615Z,28.87
2017-10-17T19:07:47.571Z,28.07
2017-10-17T19:10:13.513Z,30.37
2017-10-17T19:12:39.478Z,27.20
2017-10-17T19:15:06.199Z,29.57
2017-10-17T19:17:32.214Z,26.50
2017-10-17T19:19:58.158Z,28.20
2017-10-17T19:22:24.160Z,44.37
2017-10-17T19:24:50.128Z,25.60
2017-10-17T19:27:16.074Z,28.93
2017-10-17T19:29:42.829Z,28.70
2017-10-17T19:32:08.787Z,29.20
2017-10-17T19:34:34.736Z,26.83
2017-10-17T19:37:00.760Z,27.33
2017-10-17T19:39:26.717Z,24.50
2017-10-17T19:41:53.422Z,24.37
2017-10-17T19:44:19.414Z,30.87
2017-10-17T19:46:45.372Z,23.27
2017-10-17T19:49:12.066Z,26.40
2017-10-17T19:51:38.053Z,28.67
2017-10-17T19:54:04.002Z,25.13
2017-10-17T19:56:30.699Z,21.90
2017-10-17T19:58:58.597Z,27.50
2017-10-17T20:01:24.618Z,25.80
2017-10-17T20:03:50.613Z,23.53
2017-10-17T20:06:16.603Z,21.43
2017-10-17T20:08:43.294Z,20.83
2017-10-17T20:11:09.277Z,22.07
2017-10-17T20:13:35.230Z,20.67
2017-10-17T20:16:01.174Z,23.53
2017-10-17T20:18:27.158Z,23.97
2017-10-17T20:20:53.866Z,27.03
2017-10-17T20:23:19.906Z,23.90
2017-10-17T20:25:45.861Z,22.67
2017-10-17T20:28:11.810Z,23.17
2017-10-17T20:30:37.798Z,22.80
2017-10-17T20:33:03.746Z,24.30
2017-10-17T20:35:29.682Z,24.30
2017-10-17T20:37:55.662Z,23.37
2017-10-17T20:40:21.627Z,26.67
2017-10-17T20:42:47.618Z,26.63
2017-10-17T20:45:13.557Z,27.23
2017-10-17T20:47:39.510Z,24.53
2017-10-17T20:50:05.495Z,22.83
2017-10-17T20:52:32.234Z,27.17
2017-10-17T20:54:58.212Z,28.53
2017-10-17T20:57:24.702Z,25.73
2017-10-17T20:59:51.055Z,29.60
2017-10-17T21:02:17.765Z,25.87
2017-10-17T21:04:44.137Z,26.03
2017-10-17T21:07:10.086Z,25.73
2017-10-17T21:09:36.034Z,27.43
2017-10-17T21:12:02.245Z,27.30
2017-10-17T21:14:28.539Z,29.80
2017-10-17T21:16:55.574Z,26.20
2017-10-17T21:19:22.272Z,30.67
2017-10-17T21:21:48.223Z,29.73
2017-10-17T21:24:14.954Z,28.10
2017-10-17T21:26:41.641Z,28.87
2017-10-17T21:29:07.595Z,29.90
2017-10-17T21:31:33.586Z,29.73
2017-10-17T21:34:00.286Z,26.47
2017-10-17T21:36:26.277Z,25.30
2017-10-17T21:38:52.242Z,27.27
2017-10-17T21:41:18.210Z,27.50
2017-10-17T21:43:44.198Z,27.77
2017-10-17T21:46:10.149Z,28.40
2017-10-17T21:48:36.894Z,27.37
2017-10-17T21:51:02.832Z,26.20
2017-10-17T21:53:28.782Z,25.77
2017-10-17T21:55:54.834Z,25.60
2017-10-17T21:58:20.813Z,27.90
2017-10-17T22:01:00.166Z,29.13
2017-10-17T22:03:26.121Z,28.03
2017-10-17T22:05:52.074Z,28.97
2017-10-17T22:08:18.077Z,24.90
2017-10-17T22:10:44.020Z,29.83
2017-10-17T22:13:09.975Z,27.00
2017-10-17T22:15:36.741Z,27.07
2017-10-17T22:18:02.721Z,26.87
2017-10-17T22:20:28.677Z,28.80
2017-10-17T22:22:54.681Z,27.60
2017-10-17T22:25:20.651Z,25.53
2017-10-17T22:27:46.641Z,27.90
2017-10-17T22:30:13.320Z,29.37
2017-10-17T22:32:39.264Z,26.63
2017-10-17T22:35:05.976Z,28.07
2017-10-17T22:37:31.957Z,28.43
2017-10-17T22:39:57.905Z,29.60
2017-10-17T22:42:24.690Z,28.47
2017-10-17T22:44:50.708Z,29.90
2017-10-17T22:47:16.649Z,29.53
2017-10-17T22:49:42.633Z,29.70
2017-10-17T22:52:08.595Z,29.63
2017-10-17T22:54:34.572Z,32.23
2017-10-17T22:57:00.516Z,31.40
2017-10-17T22:59:26.464Z,28.37
2017-10-17T23:01:52.458Z,31.97
2017-10-17T23:04:18.458Z,28.53
2017-10-17T23:06:44.453Z,32.67
2017-10-17T23:09:10.384Z,30.17
2017-10-17T23:11:36.373Z,33.97
2017-10-17T23:14:02.352Z,30.60
2017-10-17T23:16:29.025Z,28.00
2017-10-17T23:19:07.582Z,33.20
2017-10-17T23:21:34.291Z,30.70
2017-10-17T23:24:00.233Z,29.37
2017-10-17T23:26:26.228Z,31.07
2017-10-17T23:28:52.920Z,29.10
2017-10-17T23:31:18.898Z,28.90
2017-10-17T23:33:44.901Z,29.23
2017-10-17T23:36:10.845Z,29.30
2017-10-17T23:38:36.805Z,28.53
2017-10-17T23:41:02.813Z,34.70
2017-10-17T23:43:28.784Z,28.80
2017-10-17T23:45:54.734Z,27.37
2017-10-17T23:48:20.742Z,32.47
2017-10-17T23:50:46.693Z,31.27
2017-10-17T23:53:12.677Z,31.20
2017-10-17T23:55:38.674Z,28.13
2017-10-17T23:58:04.621Z,28.50
